Time;durP1;ratioP1;P1;durP2;ratioP2;P2;SDS_P1;SDS_P2;PMS_P1;PMS_P2;Temp;Humidity;BMP_temperature;BMP_pressure;BME280_temperature;BME280_humidity;BME280_pressure;Samples;Min_cycle;Max_cycle;Signal;HPM_P1;HPM_P2
2022/01/15 00:00:30;;;;;;;0.10;0.00;;;;;;;;;;5052855;28;20024;-63
2022/01/15 00:02:55;;;;;;;2.08;0.50;;;;;;;;;;5051394;28;20016;-64
2022/01/15 00:05:20;;;;;;;0.35;0.35;;;;;;;;;;5052371;28;20045;-64
2022/01/15 00:07:48;;;;;;;0.10;0.10;;;;;;;;;;5052815;28;20104;-64
2022/01/15 00:10:13;;;;;;;0.25;0.20;;;;;;;;;;5052685;28;20209;-64
2022/01/15 00:12:40;;;;;;;0.28;0.10;;;;;;;;;;5052721;28;20072;-64
2022/01/15 00:15:06;;;;;;;0.82;0.20;;;;;;;;;;5052268;28;20094;-63
2022/01/15 00:17:45;;;;;;;0.10;0.10;;;;;;;;;;5052590;28;20361;-65
2022/01/15 00:20:10;;;;;;;1.48;0.10;;;;;;;;;;5052616;28;20055;-64
2022/01/15 00:22:36;;;;;;;0.08;0.00;;;;;;;;;;5052625;28;20013;-63
2022/01/15 00:25:01;;;;;;;0.10;0.03;;;;;;;;;;5052260;28;20025;-64
2022/01/15 00:27:26;;;;;;;0.37;0.17;;;;;;;;;;5052395;28;20250;-64
2022/01/15 00:29:51;;;;;;;0.77;0.27;;;;;;;;;;5052419;28;20071;-64
2022/01/15 00:32:16;;;;;;;1.10;0.17;;;;;;;;;;5052305;28;20017;-63
2022/01/15 00:34:41;;;;;;;0.20;0.00;;;;;;;;;;5052317;28;20070;-64
2022/01/15 00:37:06;;;;;;;0.50;0.00;;;;;;;;;;5051969;28;20483;-64
2022/01/15 00:39:32;;;;;;;0.33;0.13;;;;;;;;;;5052211;28;20020;-64
2022/01/15 00:41:57;;;;;;;0.52;0.00;;;;;;;;;;5052227;28;20623;-64
2022/01/15 00:44:22;;;;;;;0.70;0.00;;;;;;;;;;5052171;28;20017;-63
2022/01/15 00:46:47;;;;;;;0.50;0.08;;;;;;;;;;5052096;28;20384;-64
2022/01/15 00:49:13;;;;;;;0.95;0.10;;;;;;;;;;5051986;28;20436;-63
2022/01/15 00:51:38;;;;;;;0.10;0.00;;;;;;;;;;5052158;28;20017;-64
2022/01/15 00:54:04;;;;;;;0.00;0.00;;;;;;;;;;5052053;28;20544;-64
2022/01/15 00:56:30;;;;;;;1.15;0.20;;;;;;;;;;5052056;28;20456;-64
2022/01/15 00:58:56;;;;;;;0.13;0.00;;;;;;;;;;5051886;28;20082;-64
2022/01/15 01:01:21;;;;;;;0.00;0.00;;;;;;;;;;5051856;28;20064;-64
2022/01/15 01:03:47;;;;;;;1.25;0.22;;;;;;;;;;5053004;28;20024;-63
2022/01/15 01:06:12;;;;;;;0.85;0.10;;;;;;;;;;5055866;28;20075;-64
2022/01/15 01:08:37;;;;;;;0.70;0.10;;;;;;;;;;5054980;28;20441;-64
2022/01/15 01:11:10;;;;;;;0.82;0.10;;;;;;;;;;5054480;28;20033;-64
2022/01/15 01:24:01;;;;;;;0.38;0.20;;;;;;;;;;5056027;28;20017;-64
2022/01/15 01:26:39;;;;;;;0.20;0.00;;;;;;;;;;5055861;28;20411;-63
2022/01/15 01:32:03;;;;;;;0.38;0.00;;;;;;;;;;5055839;28;20025;-64
2022/01/15 01:34:31;;;;;;;0.63;0.20;;;;;;;;;;5055687;28;20025;-64
2022/01/15 01:39:23;;;;;;;0.40;0.03;;;;;;;;;;5055558;28;20021;-64
2022/01/15 01:42:07;;;;;;;0.40;0.03;;;;;;;;;;5055570;28;20372;-65
2022/01/15 01:44:38;;;;;;;0.45;0.10;;;;;;;;;;5055556;28;20111;-65
2022/01/15 01:47:07;;;;;;;0.20;0.05;;;;;;;;;;5055074;28;20021;-64
2022/01/15 01:49:32;;;;;;;0.43;0.00;;;;;;;;;;5055426;28;20028;-64
2022/01/15 01:51:57;;;;;;;0.83;0.20;;;;;;;;;;5055394;28;20025;-63
2022/01/15 01:54:22;;;;;;;0.47;0.20;;;;;;;;;;5055113;28;20268;-64
2022/01/15 01:56:48;;;;;;;0.77;0.03;;;;;;;;;;5055107;28;20079;-64
2022/01/15 01:59:16;;;;;;;1.17;0.10;;;;;;;;;;5055005;28;20741;-64
2022/01/15 02:01:41;;;;;;;0.95;0.17;;;;;;;;;;5055024;28;20017;-64
2022/01/15 02:04:06;;;;;;;1.27;0.17;;;;;;;;;;5062353;23;20656;-64
2022/01/15 02:06:32;;;;;;;0.50;0.00;;;;;;;;;;5055104;28;20143;-64
2022/01/15 02:08:58;;;;;;;0.20;0.00;;;;;;;;;;5054821;28;20254;-64
2022/01/15 02:11:25;;;;;;;0.17;0.05;;;;;;;;;;5054810;28;20265;-64
2022/01/15 02:13:50;;;;;;;0.50;0.20;;;;;;;;;;5054522;28;20104;-63
2022/01/15 02:16:15;;;;;;;1.08;0.20;;;;;;;;;;5054808;28;20712;-64
2022/01/15 02:18:41;;;;;;;1.05;0.30;;;;;;;;;;5054778;28;20021;-63
2022/01/15 02:23:34;;;;;;;0.65;0.10;;;;;;;;;;5055070;28;20017;-63
2022/01/15 02:26:00;;;;;;;0.15;0.08;;;;;;;;;;5054717;28;20476;-63
2022/01/15 02:28:27;;;;;;;0.30;0.10;;;;;;;;;;5054591;28;20016;-64
2022/01/15 02:31:02;;;;;;;0.40;0.20;;;;;;;;;;5054375;28;20039;-64
2022/01/15 02:33:28;;;;;;;0.65;0.17;;;;;;;;;;5054587;28;20029;-63
2022/01/15 02:35:53;;;;;;;0.10;0.10;;;;;;;;;;5054608;28;20028;-64
2022/01/15 02:38:18;;;;;;;0.10;0.10;;;;;;;;;;5054303;28;20403;-65
2022/01/15 02:40:44;;;;;;;0.85;0.10;;;;;;;;;;5054247;28;20025;-65
2022/01/15 02:43:12;;;;;;;0.00;0.00;;;;;;;;;;5054282;28;20020;-65
2022/01/15 02:45:41;;;;;;;0.32;0.00;;;;;;;;;;5054454;28;20506;-64
2022/01/15 02:48:13;;;;;;;0.40;0.20;;;;;;;;;;5054122;28;20029;-65
2022/01/15 02:50:38;;;;;;;0.20;0.13;;;;;;;;;;5053180;28;20412;-65
2022/01/15 02:53:04;;;;;;;1.95;0.40;;;;;;;;;;5052544;28;20302;-64
2022/01/15 02:55:29;;;;;;;0.00;0.00;;;;;;;;;;5054187;28;20024;-64
2022/01/15 02:57:55;;;;;;;0.43;0.10;;;;;;;;;;5054127;28;20093;-64
2022/01/15 03:00:21;;;;;;;0.30;0.17;;;;;;;;;;5054148;28;20476;-65
2022/01/15 03:02:46;;;;;;;0.22;0.05;;;;;;;;;;5053865;28;20032;-64
2022/01/15 03:05:11;;;;;;;0.40;0.20;;;;;;;;;;5053636;28;20052;-64
2022/01/15 03:07:37;;;;;;;0.28;0.10;;;;;;;;;;5053974;28;20024;-65
2022/01/15 03:10:03;;;;;;;0.25;0.10;;;;;;;;;;5053797;28;20028;-64
2022/01/15 03:12:28;;;;;;;0.00;0.00;;;;;;;;;;5053870;28;20024;-64
2022/01/15 03:14:59;;;;;;;0.65;0.30;;;;;;;;;;5053622;28;20354;-64
2022/01/15 03:17:24;;;;;;;0.15;0.00;;;;;;;;;;5053665;28;20480;-64
2022/01/15 03:19:49;;;;;;;0.00;0.00;;;;;;;;;;5053989;28;20036;-64
2022/01/15 03:22:15;;;;;;;0.10;0.10;;;;;;;;;;5053529;28;20021;-64
2022/01/15 03:24:40;;;;;;;1.20;0.10;;;;;;;;;;5053360;28;20017;-64
2022/01/15 03:27:05;;;;;;;1.75;0.55;;;;;;;;;;5052283;28;20335;-64
2022/01/15 03:29:30;;;;;;;0.23;0.17;;;;;;;;;;5053409;28;20021;-65
2022/01/15 03:31:55;;;;;;;0.80;0.20;;;;;;;;;;5053514;28;20040;-64
2022/01/15 03:34:20;;;;;;;1.10;0.10;;;;;;;;;;5053289;28;20048;-64
2022/01/15 03:36:46;;;;;;;0.10;0.00;;;;;;;;;;5053240;28;20250;-65
2022/01/15 03:39:11;;;;;;;1.17;0.20;;;;;;;;;;5053284;28;20025;-64
2022/01/15 03:41:36;;;;;;;0.40;0.23;;;;;;;;;;5053229;28;20353;-64
2022/01/15 03:44:01;;;;;;;0.10;0.10;;;;;;;;;;5053206;28;20297;-64
2022/01/15 03:46:26;;;;;;;1.63;0.10;;;;;;;;;;5053223;28;20116;-64
2022/01/15 03:48:52;;;;;;;0.28;0.10;;;;;;;;;;5053015;28;20292;-65
2022/01/15 03:51:19;;;;;;;0.20;0.00;;;;;;;;;;5052846;28;20020;-65
2022/01/15 03:53:44;;;;;;;1.10;0.20;;;;;;;;;;5052890;28;20013;-64
2022/01/15 03:56:09;;;;;;;0.20;0.00;;;;;;;;;;5052927;28;20017;-64
2022/01/15 03:58:34;;;;;;;0.50;0.20;;;;;;;;;;5053333;28;20017;-64
2022/01/15 04:00:59;;;;;;;0.20;0.03;;;;;;;;;;5052592;28;20036;-63
2022/01/15 04:03:25;;;;;;;0.60;0.10;;;;;;;;;;5052706;28;20262;-65
2022/01/15 04:05:50;;;;;;;0.30;0.10;;;;;;;;;;5052724;28;20531;-65
2022/01/15 04:08:15;;;;;;;0.17;0.00;;;;;;;;;;5052636;28;20231;-65
2022/01/15 04:10:42;;;;;;;0.43;0.10;;;;;;;;;;5052751;28;20250;-63
2022/01/15 04:13:07;;;;;;;0.35;0.10;;;;;;;;;;5052332;28;20483;-64
2022/01/15 04:15:32;;;;;;;0.73;0.10;;;;;;;;;;5052691;28;20025;-64
2022/01/15 04:17:57;;;;;;;1.00;0.20;;;;;;;;;;5052639;28;20253;-64
2022/01/15 04:20:23;;;;;;;0.35;0.10;;;;;;;;;;5052431;28;20556;-65
2022/01/15 04:22:49;;;;;;;0.32;0.00;;;;;;;;;;5052462;28;20373;-64
2022/01/15 04:25:14;;;;;;;0.00;0.00;;;;;;;;;;5052369;28;20028;-64
2022/01/15 04:27:40;;;;;;;0.13;0.00;;;;;;;;;;5052558;28;20387;-63
2022/01/15 04:30:06;;;;;;;0.30;0.00;;;;;;;;;;5052379;28;20369;-64
2022/01/15 04:32:32;;;;;;;0.30;0.10;;;;;;;;;;5052472;28;20017;-64
2022/01/15 04:34:58;;;;;;;0.35;0.15;;;;;;;;;;5052222;28;20020;-64
2022/01/15 04:37:25;;;;;;;0.32;0.30;;;;;;;;;;5051994;28;20048;-64
2022/01/15 04:39:51;;;;;;;0.30;0.10;;;;;;;;;;5052255;28;20100;-64
2022/01/15 04:42:20;;;;;;;0.40;0.05;;;;;;;;;;5052132;28;20132;-64
2022/01/15 04:44:45;;;;;;;0.52;0.10;;;;;;;;;;5052132;28;20045;-64
2022/01/15 04:47:10;;;;;;;0.32;0.20;;;;;;;;;;5052287;28;20483;-64
2022/01/15 04:49:36;;;;;;;0.43;0.10;;;;;;;;;;5052253;28;20036;-65
2022/01/15 04:52:01;;;;;;;0.20;0.08;;;;;;;;;;5051079;28;20104;-65
2022/01/15 04:54:26;;;;;;;1.17;0.10;;;;;;;;;;5052364;28;20048;-64
2022/01/15 04:56:52;;;;;;;0.10;0.00;;;;;;;;;;5052053;28;20463;-63
2022/01/15 04:59:17;;;;;;;1.13;0.10;;;;;;;;;;5051739;28;20316;-64
2022/01/15 05:01:42;;;;;;;1.38;0.00;;;;;;;;;;5052126;28;20134;-64
2022/01/15 05:04:07;;;;;;;0.32;0.10;;;;;;;;;;5050483;28;20121;-64
2022/01/15 05:06:33;;;;;;;0.80;0.30;;;;;;;;;;5051968;28;20511;-64
2022/01/15 05:09:05;;;;;;;0.55;0.30;;;;;;;;;;5051754;28;20027;-64
2022/01/15 05:11:44;;;;;;;0.57;0.38;;;;;;;;;;5051972;28;20017;-64
2022/01/15 05:14:10;;;;;;;0.63;0.10;;;;;;;;;;5051728;28;20025;-64
2022/01/15 05:16:36;;;;;;;0.80;0.10;;;;;;;;;;5051968;28;20457;-64
2022/01/15 05:19:01;;;;;;;0.93;0.22;;;;;;;;;;5051474;28;20029;-64
2022/01/15 05:21:26;;;;;;;0.57;0.10;;;;;;;;;;5052134;28;20452;-64
2022/01/15 05:23:51;;;;;;;0.10;0.00;;;;;;;;;;5051992;28;20108;-64
2022/01/15 05:26:17;;;;;;;0.32;0.10;;;;;;;;;;5051745;28;20021;-64
2022/01/15 05:28:42;;;;;;;0.10;0.00;;;;;;;;;;5051839;28;20020;-64
2022/01/15 05:31:07;;;;;;;0.35;0.30;;;;;;;;;;5051418;28;20523;-64
2022/01/15 05:33:33;;;;;;;0.08;0.00;;;;;;;;;;5051811;28;20024;-64
2022/01/15 05:35:58;;;;;;;0.30;0.08;;;;;;;;;;5051702;28;20029;-64
2022/01/15 05:38:23;;;;;;;0.85;0.30;;;;;;;;;;5051611;28;20468;-63
2022/01/15 05:40:49;;;;;;;1.73;0.10;;;;;;;;;;5051510;28;20091;-64
2022/01/15 05:43:14;;;;;;;0.95;0.10;;;;;;;;;;5051367;28;20261;-64
2022/01/15 05:45:39;;;;;;;0.97;0.10;;;;;;;;;;5051630;28;20031;-64
2022/01/15 05:48:04;;;;;;;0.85;0.22;;;;;;;;;;5050305;28;20253;-64
2022/01/15 05:50:29;;;;;;;0.75;0.08;;;;;;;;;;5054727;28;20028;-65
2022/01/15 05:52:54;;;;;;;0.33;0.10;;;;;;;;;;5055242;28;20092;-65
2022/01/15 05:55:20;;;;;;;0.47;0.10;;;;;;;;;;5055078;28;20250;-65
2022/01/15 05:57:45;;;;;;;0.57;0.10;;;;;;;;;;5055396;28;20485;-65
2022/01/15 06:00:10;;;;;;;0.33;0.10;;;;;;;;;;5055016;28;20313;-64
2022/01/15 06:02:35;;;;;;;0.10;0.10;;;;;;;;;;5054937;28;20256;-64
2022/01/15 06:05:00;;;;;;;0.10;0.10;;;;;;;;;;5054618;28;20420;-64
2022/01/15 06:07:26;;;;;;;0.20;0.00;;;;;;;;;;5055208;28;20021;-64
2022/01/15 06:09:51;;;;;;;0.20;0.00;;;;;;;;;;5055124;28;20021;-64
2022/01/15 06:12:16;;;;;;;0.43;0.20;;;;;;;;;;5054827;28;20032;-64
2022/01/15 06:14:41;;;;;;;0.70;0.10;;;;;;;;;;5054988;28;20025;-63
2022/01/15 06:17:08;;;;;;;0.57;0.10;;;;;;;;;;5054500;28;20280;-64
2022/01/15 06:19:33;;;;;;;0.35;0.10;;;;;;;;;;5054835;28;20503;-65
2022/01/15 06:21:59;;;;;;;0.13;0.10;;;;;;;;;;5054774;28;20052;-63
2022/01/15 06:24:24;;;;;;;0.30;0.10;;;;;;;;;;5054742;28;20017;-64
2022/01/15 06:26:49;;;;;;;0.37;0.27;;;;;;;;;;5054642;28;20620;-63
2022/01/15 06:29:14;;;;;;;0.00;0.00;;;;;;;;;;5054776;28;20254;-65
2022/01/15 06:31:40;;;;;;;0.20;0.10;;;;;;;;;;5054660;28;20530;-65
2022/01/15 06:34:05;;;;;;;0.10;0.00;;;;;;;;;;5054502;28;20418;-63
2022/01/15 06:36:30;;;;;;;0.47;0.10;;;;;;;;;;5054600;28;20120;-64
2022/01/15 06:38:55;;;;;;;0.83;0.10;;;;;;;;;;5054258;28;20032;-64
2022/01/15 06:41:20;;;;;;;0.40;0.10;;;;;;;;;;5054308;28;20670;-64
2022/01/15 06:43:46;;;;;;;0.52;0.05;;;;;;;;;;5054453;28;20041;-65
2022/01/15 06:46:11;;;;;;;0.05;0.05;;;;;;;;;;5054283;28;20482;-64
2022/01/15 06:48:36;;;;;;;0.63;0.20;;;;;;;;;;5054318;28;20512;-64
2022/01/15 06:51:02;;;;;;;0.10;0.10;;;;;;;;;;5053982;28;20054;-64
2022/01/15 06:53:27;;;;;;;0.38;0.10;;;;;;;;;;5054190;28;20246;-65
2022/01/15 06:55:53;;;;;;;0.22;0.10;;;;;;;;;;5054249;28;20116;-65
2022/01/15 06:58:19;;;;;;;0.93;0.13;;;;;;;;;;5053962;28;20090;-64
2022/01/15 07:00:44;;;;;;;0.00;0.00;;;;;;;;;;5054020;28;20024;-63
2022/01/15 07:03:09;;;;;;;0.20;0.10;;;;;;;;;;5053724;28;20119;-63
2022/01/15 07:05:34;;;;;;;0.10;0.00;;;;;;;;;;5053955;28;20281;-64
2022/01/15 07:07:59;;;;;;;0.27;0.20;;;;;;;;;;5053913;28;20422;-64
2022/01/15 07:10:25;;;;;;;0.70;0.00;;;;;;;;;;5053934;28;20293;-63
2022/01/15 07:12:50;;;;;;;0.10;0.05;;;;;;;;;;5053757;28;20384;-64
2022/01/15 07:15:15;;;;;;;0.32;0.00;;;;;;;;;;5053619;28;20025;-64
2022/01/15 07:17:42;;;;;;;0.10;0.10;;;;;;;;;;5053800;28;20025;-63
2022/01/15 07:20:07;;;;;;;0.55;0.10;;;;;;;;;;5052186;28;20049;-63
2022/01/15 07:22:32;;;;;;;0.73;0.20;;;;;;;;;;5052427;28;20510;-63
2022/01/15 07:24:57;;;;;;;0.40;0.30;;;;;;;;;;5053525;28;20017;-64
2022/01/15 07:27:22;;;;;;;0.32;0.20;;;;;;;;;;5053387;28;20021;-63
2022/01/15 07:29:48;;;;;;;0.37;0.00;;;;;;;;;;5053416;28;20029;-64
2022/01/15 07:32:13;;;;;;;0.25;0.08;;;;;;;;;;5053380;28;20411;-63
2022/01/15 07:34:38;;;;;;;0.27;0.10;;;;;;;;;;5053464;28;20040;-64
2022/01/15 07:37:03;;;;;;;0.30;0.15;;;;;;;;;;5053077;28;20373;-64
2022/01/15 07:39:28;;;;;;;0.00;0.00;;;;;;;;;;5053233;28;20059;-64
2022/01/15 07:41:57;;;;;;;0.10;0.00;;;;;;;;;;5053281;28;20028;-64
2022/01/15 07:44:22;;;;;;;1.15;0.22;;;;;;;;;;5053193;28;20647;-64
2022/01/15 07:46:47;;;;;;;0.20;0.00;;;;;;;;;;5053325;28;20542;-65
2022/01/15 07:49:12;;;;;;;0.10;0.03;;;;;;;;;;5053013;28;20108;-65
2022/01/15 07:51:37;;;;;;;1.15;0.20;;;;;;;;;;5053181;28;20024;-64
2022/01/15 07:54:03;;;;;;;0.73;0.07;;;;;;;;;;5053017;28;20016;-64
2022/01/15 07:56:28;;;;;;;0.55;0.15;;;;;;;;;;5053028;28;20104;-64
2022/01/15 07:58:53;;;;;;;0.20;0.00;;;;;;;;;;5052859;28;20104;-65
2022/01/15 08:01:18;;;;;;;0.37;0.10;;;;;;;;;;5052627;28;20274;-64
2022/01/15 08:03:44;;;;;;;0.98;0.10;;;;;;;;;;5052755;28;20033;-64
2022/01/15 08:06:10;;;;;;;1.75;0.20;;;;;;;;;;5052727;28;20092;-64
2022/01/15 08:08:35;;;;;;;0.40;0.10;;;;;;;;;;5052844;28;20063;-64
2022/01/15 08:11:00;;;;;;;0.10;0.10;;;;;;;;;;5052560;28;20025;-63
2022/01/15 08:13:26;;;;;;;0.43;0.10;;;;;;;;;;5052462;28;20021;-64
2022/01/15 08:15:51;;;;;;;0.10;0.10;;;;;;;;;;5051765;28;20059;-64
2022/01/15 08:18:18;;;;;;;0.10;0.03;;;;;;;;;;5052529;28;20056;-64
2022/01/15 08:20:43;;;;;;;0.17;0.08;;;;;;;;;;5052513;28;20021;-64
2022/01/15 08:23:09;;;;;;;0.17;0.10;;;;;;;;;;5052317;28;20406;-64
2022/01/15 08:25:34;;;;;;;0.10;0.10;;;;;;;;;;5052241;28;20028;-64
2022/01/15 08:27:59;;;;;;;0.38;0.10;;;;;;;;;;5052535;28;20009;-64
2022/01/15 08:30:24;;;;;;;0.10;0.10;;;;;;;;;;5052395;28;20025;-64
2022/01/15 08:32:49;;;;;;;0.13;0.00;;;;;;;;;;5052642;28;20108;-64
2022/01/15 08:35:15;;;;;;;0.85;0.20;;;;;;;;;;5052150;28;20017;-64
2022/01/15 08:37:40;;;;;;;0.20;0.10;;;;;;;;;;5052429;28;20025;-64
2022/01/15 08:40:06;;;;;;;0.50;0.20;;;;;;;;;;5050800;28;20278;-64
2022/01/15 08:42:31;;;;;;;0.00;0.00;;;;;;;;;;5052197;28;20021;-64
2022/01/15 08:44:56;;;;;;;0.20;0.00;;;;;;;;;;5052124;28;20079;-64
2022/01/15 08:47:22;;;;;;;0.10;0.10;;;;;;;;;;5052021;28;20289;-64
2022/01/15 08:49:47;;;;;;;0.10;0.10;;;;;;;;;;5052307;28;20486;-64
2022/01/15 08:52:12;;;;;;;0.17;0.08;;;;;;;;;;5052014;28;20457;-64
2022/01/15 08:54:37;;;;;;;0.52;0.13;;;;;;;;;;5051933;28;20025;-64
2022/01/15 08:57:03;;;;;;;0.70;0.20;;;;;;;;;;5051855;28;20032;-65
2022/01/15 08:59:28;;;;;;;0.10;0.03;;;;;;;;;;5051975;28;20464;-64
2022/01/15 09:01:57;;;;;;;0.25;0.00;;;;;;;;;;5052106;28;20061;-64
2022/01/15 09:04:22;;;;;;;0.40;0.40;;;;;;;;;;5051775;28;20461;-64
2022/01/15 09:06:47;;;;;;;0.32;0.03;;;;;;;;;;5050613;28;20485;-64
2022/01/15 09:09:13;;;;;;;1.15;0.20;;;;;;;;;;5051842;28;20044;-64
2022/01/15 09:11:38;;;;;;;1.40;0.10;;;;;;;;;;5052324;28;20365;-64
2022/01/15 09:14:03;;;;;;;0.20;0.10;;;;;;;;;;5051892;28;20334;-65
2022/01/15 09:16:28;;;;;;;0.40;0.30;;;;;;;;;;5052037;28;20453;-65
2022/01/15 09:18:56;;;;;;;0.28;0.10;;;;;;;;;;5052085;28;20040;-64
2022/01/15 09:21:21;;;;;;;0.10;0.10;;;;;;;;;;5051978;28;20025;-64
2022/01/15 09:23:46;;;;;;;0.80;0.10;;;;;;;;;;5052428;28;20354;-64
2022/01/15 09:26:20;;;;;;;0.20;0.00;;;;;;;;;;5055747;28;20246;-64
2022/01/15 09:31:30;;;;;;;0.75;0.10;;;;;;;;;;5056079;28;20388;-64
2022/01/15 09:33:55;;;;;;;0.95;0.10;;;;;;;;;;5055826;28;20051;-63
2022/01/15 09:36:20;;;;;;;1.60;0.10;;;;;;;;;;5055564;28;20067;-65
2022/01/15 09:38:45;;;;;;;0.32;0.10;;;;;;;;;;5055531;28;20728;-64
2022/01/15 09:41:10;;;;;;;0.40;0.10;;;;;;;;;;5055344;28;20525;-64
2022/01/15 09:43:37;;;;;;;1.00;0.20;;;;;;;;;;5055508;28;20039;-65
2022/01/15 09:46:03;;;;;;;1.10;0.15;;;;;;;;;;5054203;28;20456;-64
2022/01/15 09:48:29;;;;;;;0.05;0.05;;;;;;;;;;5055829;28;20048;-64
2022/01/15 09:50:54;;;;;;;0.40;0.00;;;;;;;;;;5054015;28;20461;-64
2022/01/15 09:53:20;;;;;;;0.17;0.10;;;;;;;;;;5055495;28;20025;-64
2022/01/15 09:55:46;;;;;;;0.30;0.20;;;;;;;;;;5055496;28;20021;-65
2022/01/15 09:58:12;;;;;;;0.10;0.10;;;;;;;;;;5055227;28;20017;-64
2022/01/15 10:00:37;;;;;;;0.38;0.00;;;;;;;;;;5055029;28;20151;-64
2022/01/15 10:03:02;;;;;;;0.37;0.10;;;;;;;;;;5055038;28;20430;-64
2022/01/15 10:05:27;;;;;;;0.30;0.10;;;;;;;;;;5054207;28;20044;-64
2022/01/15 10:08:03;;;;;;;0.32;0.10;;;;;;;;;;5055451;28;20483;-64
2022/01/15 10:10:30;;;;;;;0.65;0.10;;;;;;;;;;5055102;28;20039;-63
2022/01/15 10:12:55;;;;;;;0.00;0.00;;;;;;;;;;5054872;28;20379;-64
2022/01/15 10:15:21;;;;;;;0.47;0.10;;;;;;;;;;5054795;28;20104;-64
2022/01/15 10:17:46;;;;;;;0.10;0.00;;;;;;;;;;5055015;28;20028;-64
2022/01/15 10:20:18;;;;;;;0.98;0.03;;;;;;;;;;5054769;28;20100;-64
2022/01/15 10:22:45;;;;;;;0.98;0.10;;;;;;;;;;5054836;28;20040;-65
2022/01/15 10:25:14;;;;;;;0.03;0.03;;;;;;;;;;5054597;28;20017;-64
2022/01/15 10:27:42;;;;;;;0.30;0.13;;;;;;;;;;5054819;28;20016;-64
2022/01/15 10:30:07;;;;;;;0.20;0.10;;;;;;;;;;5054521;28;20056;-64
2022/01/15 10:32:35;;;;;;;0.25;0.10;;;;;;;;;;5054673;28;20118;-64
2022/01/15 10:35:08;;;;;;;0.00;0.00;;;;;;;;;;5054063;28;20021;-64
2022/01/15 10:37:36;;;;;;;0.75;0.30;;;;;;;;;;5054570;28;20017;-64
2022/01/15 10:40:05;;;;;;;4.47;0.22;;;;;;;;;;5054352;28;20539;-64
2022/01/15 10:42:31;;;;;;;0.85;0.28;;;;;;;;;;5054425;28;20019;-64
2022/01/15 10:44:57;;;;;;;0.82;0.10;;;;;;;;;;5052959;28;20021;-63
2022/01/15 10:47:24;;;;;;;0.43;0.10;;;;;;;;;;5054240;28;20537;-64
2022/01/15 10:49:49;;;;;;;0.75;0.47;;;;;;;;;;5054337;28;20021;-64
2022/01/15 10:52:19;;;;;;;1.20;0.15;;;;;;;;;;5054244;28;20082;-64
2022/01/15 10:55:03;;;;;;;1.20;0.32;;;;;;;;;;5054491;28;20017;-65
2022/01/15 10:57:51;;;;;;;0.13;0.05;;;;;;;;;;5054192;28;20083;-64
2022/01/15 11:00:40;;;;;;;0.50;0.20;;;;;;;;;;5053753;28;20037;-65
2022/01/15 11:03:06;;;;;;;0.20;0.10;;;;;;;;;;5045349;28;20069;-65
2022/01/15 11:05:31;;;;;;;0.13;0.10;;;;;;;;;;5052715;28;20047;-64
2022/01/15 11:08:04;;;;;;;0.77;0.30;;;;;;;;;;5054337;28;20155;-65
2022/01/15 11:10:36;;;;;;;0.15;0.03;;;;;;;;;;5053792;28;20262;-64
2022/01/15 11:13:04;;;;;;;0.40;0.15;;;;;;;;;;5053690;28;20032;-65
2022/01/15 11:15:29;;;;;;;0.57;0.00;;;;;;;;;;5054102;28;20096;-64
2022/01/15 11:17:54;;;;;;;0.17;0.00;;;;;;;;;;5054188;28;20496;-64
2022/01/15 11:20:23;;;;;;;0.20;0.10;;;;;;;;;;5053502;28;20036;-64
2022/01/15 11:22:48;;;;;;;0.10;0.10;;;;;;;;;;5053548;28;20257;-63
2022/01/15 11:25:13;;;;;;;0.43;0.10;;;;;;;;;;5053449;28;20017;-64
2022/01/15 11:27:39;;;;;;;0.10;0.08;;;;;;;;;;5052318;28;20021;-64
2022/01/15 11:30:05;;;;;;;0.50;0.10;;;;;;;;;;5053243;28;20108;-64
2022/01/15 11:32:30;;;;;;;0.43;0.00;;;;;;;;;;5053482;28;20488;-65
2022/01/15 11:35:03;;;;;;;0.52;0.10;;;;;;;;;;5053348;28;20024;-64
2022/01/15 11:37:37;;;;;;;0.30;0.10;;;;;;;;;;5053401;28;20017;-64
2022/01/15 11:40:22;;;;;;;0.22;0.10;;;;;;;;;;5053240;28;20496;-66
2022/01/15 11:42:48;;;;;;;0.20;0.20;;;;;;;;;;5051591;28;20111;-64
2022/01/15 11:45:33;;;;;;;0.35;0.05;;;;;;;;;;5053140;28;20571;-65
2022/01/15 11:48:17;;;;;;;0.88;0.15;;;;;;;;;;5052401;28;20029;-64
2022/01/15 11:50:42;;;;;;;0.00;0.00;;;;;;;;;;5053240;28;20030;-64
2022/01/15 11:53:07;;;;;;;0.98;0.20;;;;;;;;;;5052728;28;20024;-64
2022/01/15 11:55:35;;;;;;;0.20;0.10;;;;;;;;;;5053222;28;20050;-63
2022/01/15 11:58:00;;;;;;;0.52;0.28;;;;;;;;;;5053026;28;20452;-64
2022/01/15 12:00:27;;;;;;;0.30;0.10;;;;;;;;;;5052961;28;20021;-64
2022/01/15 12:02:56;;;;;;;0.00;0.00;;;;;;;;;;5052819;28;20033;-64
2022/01/15 12:05:21;;;;;;;0.03;0.03;;;;;;;;;;5052393;28;20123;-64
2022/01/15 12:07:47;;;;;;;0.65;0.32;;;;;;;;;;5052933;28;20476;-65
2022/01/15 12:10:14;;;;;;;0.40;0.10;;;;;;;;;;5052722;28;20075;-64
2022/01/15 12:12:47;;;;;;;0.10;0.10;;;;;;;;;;5053138;28;20056;-65
2022/01/15 12:15:17;;;;;;;1.05;0.10;;;;;;;;;;5052502;28;20098;-64
2022/01/15 12:17:49;;;;;;;0.55;0.10;;;;;;;;;;5053067;28;20456;-64
2022/01/15 12:20:17;;;;;;;0.47;0.20;;;;;;;;;;5052456;28;20033;-64
2022/01/15 12:22:45;;;;;;;0.45;0.20;;;;;;;;;;5051442;28;20024;-64
2022/01/15 12:25:12;;;;;;;1.45;0.10;;;;;;;;;;5052333;28;20009;-64
2022/01/15 12:27:37;;;;;;;0.15;0.10;;;;;;;;;;5052564;28;20056;-66
2022/01/15 12:30:10;;;;;;;0.03;0.00;;;;;;;;;;5052371;28;20045;-64
2022/01/15 12:32:40;;;;;;;0.22;0.10;;;;;;;;;;5052596;28;20024;-64
2022/01/15 12:35:13;;;;;;;0.50;0.10;;;;;;;;;;5051956;28;20116;-64
2022/01/15 12:37:49;;;;;;;0.40;0.10;;;;;;;;;;5052422;28;20027;-64
2022/01/15 12:40:14;;;;;;;0.28;0.17;;;;;;;;;;5052192;28;20055;-64
2022/01/15 12:42:40;;;;;;;0.43;0.10;;;;;;;;;;5052292;28;20041;-63
2022/01/15 12:45:05;;;;;;;0.10;0.05;;;;;;;;;;5051871;28;20263;-64
2022/01/15 12:47:43;;;;;;;0.57;0.17;;;;;;;;;;5052563;28;20368;-64
2022/01/15 12:50:09;;;;;;;0.22;0.10;;;;;;;;;;5050818;28;20035;-64
2022/01/15 12:52:34;;;;;;;0.13;0.10;;;;;;;;;;5052247;28;20025;-64
2022/01/15 12:55:00;;;;;;;0.00;0.00;;;;;;;;;;5052009;28;20111;-65
2022/01/15 12:57:38;;;;;;;0.47;0.17;;;;;;;;;;5051976;28;20033;-64
2022/01/15 13:00:07;;;;;;;0.30;0.20;;;;;;;;;;5051981;28;20025;-64
2022/01/15 13:02:33;;;;;;;0.15;0.10;;;;;;;;;;5052026;28;20096;-64
2022/01/15 13:04:58;;;;;;;0.77;0.17;;;;;;;;;;5051731;28;20125;-64
2022/01/15 13:07:23;;;;;;;0.30;0.10;;;;;;;;;;5051798;28;20603;-64
2022/01/15 13:09:48;;;;;;;2.47;0.10;;;;;;;;;;5050828;28;20187;-64
2022/01/15 13:12:14;;;;;;;0.25;0.10;;;;;;;;;;5051886;28;20013;-64
2022/01/15 13:14:40;;;;;;;0.75;0.08;;;;;;;;;;5051992;28;20043;-64
2022/01/15 13:17:18;;;;;;;0.60;0.13;;;;;;;;;;5051594;28;20033;-64
2022/01/15 13:19:45;;;;;;;0.30;0.10;;;;;;;;;;5051915;28;20029;-64
2022/01/15 13:22:10;;;;;;;0.65;0.25;;;;;;;;;;5051765;28;20013;-64
2022/01/15 13:24:35;;;;;;;0.10;0.10;;;;;;;;;;5051689;28;20024;-64
2022/01/15 13:27:01;;;;;;;0.40;0.10;;;;;;;;;;5051709;28;20013;-64
2022/01/15 13:29:35;;;;;;;0.50;0.20;;;;;;;;;;5052035;28;20025;-65
2022/01/15 13:32:01;;;;;;;0.28;0.10;;;;;;;;;;5051839;28;20018;-64
2022/01/15 13:34:28;;;;;;;0.28;0.05;;;;;;;;;;5051765;28;20139;-64
2022/01/15 13:36:53;;;;;;;0.22;0.10;;;;;;;;;;5051982;28;20017;-64
2022/01/15 13:39:19;;;;;;;0.28;0.10;;;;;;;;;;5051440;28;20013;-64
2022/01/15 13:41:45;;;;;;;1.38;0.10;;;;;;;;;;5051841;28;20021;-64
2022/01/15 13:44:11;;;;;;;0.45;0.30;;;;;;;;;;5051373;28;20017;-64
2022/01/15 13:46:38;;;;;;;0.30;0.10;;;;;;;;;;5051773;28;20025;-64
2022/01/15 13:49:09;;;;;;;0.43;0.10;;;;;;;;;;5051421;28;20542;-64
2022/01/15 13:54:38;;;;;;;0.55;0.05;;;;;;;;;;5051656;28;20044;-64
2022/01/15 13:57:07;;;;;;;0.15;0.00;;;;;;;;;;5051376;28;20036;-64
2022/01/15 13:59:33;;;;;;;0.10;0.00;;;;;;;;;;5051598;28;20029;-64
2022/01/15 14:02:00;;;;;;;0.45;0.20;;;;;;;;;;5051408;28;20024;-65
2022/01/15 14:04:33;;;;;;;0.22;0.10;;;;;;;;;;5051310;28;20508;-65
2022/01/15 14:07:24;;;;;;;0.08;0.00;;;;;;;;;;5051289;28;20027;-64
2022/01/15 14:09:52;;;;;;;0.08;0.08;;;;;;;;;;5049782;28;20387;-64
2022/01/15 14:12:22;;;;;;;0.40;0.20;;;;;;;;;;5054899;28;20056;-64
2022/01/15 14:14:50;;;;;;;0.10;0.10;;;;;;;;;;5054952;28;20074;-64
2022/01/15 14:17:18;;;;;;;0.13;0.10;;;;;;;;;;5054848;28;20028;-65
2022/01/15 14:22:22;;;;;;;0.85;0.20;;;;;;;;;;5054808;28;20021;-64
2022/01/15 14:24:48;;;;;;;0.20;0.20;;;;;;;;;;5053617;28;20029;-64
2022/01/15 14:27:16;;;;;;;0.73;0.10;;;;;;;;;;5054837;28;20021;-64
2022/01/15 14:29:41;;;;;;;0.22;0.10;;;;;;;;;;5054783;28;20024;-64
2022/01/15 14:32:07;;;;;;;0.17;0.10;;;;;;;;;;5054594;28;20032;-64
2022/01/15 14:34:32;;;;;;;0.20;0.03;;;;;;;;;;5054635;28;20594;-64
2022/01/15 14:36:57;;;;;;;0.30;0.10;;;;;;;;;;5054449;28;20044;-64
2022/01/15 14:39:22;;;;;;;0.50;0.15;;;;;;;;;;5054313;28;20383;-64
2022/01/15 14:41:47;;;;;;;0.25;0.10;;;;;;;;;;5054819;28;20396;-66
2022/01/15 14:44:13;;;;;;;0.20;0.07;;;;;;;;;;5054423;28;20025;-64
2022/01/15 14:46:39;;;;;;;0.10;0.10;;;;;;;;;;5054388;28;20288;-65
2022/01/15 14:49:04;;;;;;;0.38;0.10;;;;;;;;;;5053982;28;20021;-66
2022/01/15 14:51:30;;;;;;;0.27;0.00;;;;;;;;;;5054386;28;20025;-64
2022/01/15 14:53:55;;;;;;;0.68;0.00;;;;;;;;;;5054837;28;20144;-64
2022/01/15 14:56:20;;;;;;;0.20;0.17;;;;;;;;;;5054125;28;20025;-65
2022/01/15 14:58:45;;;;;;;0.20;0.00;;;;;;;;;;5054044;28;20723;-64
2022/01/15 15:01:11;;;;;;;0.95;0.20;;;;;;;;;;5054027;28;20029;-65
2022/01/15 15:03:36;;;;;;;0.37;0.00;;;;;;;;;;5054183;28;20040;-64
2022/01/15 15:06:04;;;;;;;0.40;0.20;;;;;;;;;;5053837;28;20407;-65